createdAt,value
2017-08-20T00:00:47.498Z,13.30
2017-08-20T00:03:15.011Z,13.30
2017-08-20T00:05:43.401Z,13.30
2017-08-20T00:08:10.906Z,13.10
2017-08-20T00:10:38.411Z,13.00
2017-08-20T00:13:05.989Z,13.10
2017-08-20T00:15:33.469Z,13.00
2017-08-20T00:18:00.969Z,13.00
2017-08-20T00:20:28.461Z,13.00
2017-08-20T00:22:55.963Z,13.10
2017-08-20T00:25:25.449Z,13.00
2017-08-20T00:27:52.934Z,13.00
2017-08-20T00:30:20.437Z,13.10
2017-08-20T00:32:48.862Z,13.10
2017-08-20T00:35:16.396Z,13.00
2017-08-20T00:37:43.880Z,12.90
2017-08-20T00:40:11.398Z,12.90
2017-08-20T00:42:38.878Z,12.90
2017-08-20T00:45:06.378Z,12.90
2017-08-20T00:47:34.840Z,12.90
2017-08-20T00:50:02.330Z,12.80
2017-08-20T00:52:29.807Z,12.80
2017-08-20T00:54:57.311Z,12.80
2017-08-20T00:57:24.792Z,12.80
2017-08-20T00:59:52.312Z,12.80
2017-08-20T01:02:19.794Z,12.80
2017-08-20T01:04:47.295Z,12.70
2017-08-20T01:07:14.791Z,12.70
2017-08-20T01:09:42.286Z,12.70
2017-08-20T01:12:10.730Z,12.70
2017-08-20T01:14:39.130Z,12.70
2017-08-20T01:17:06.619Z,12.80
2017-08-20T01:19:34.151Z,12.70
2017-08-20T01:22:02.562Z,12.70
2017-08-20T01:24:30.066Z,12.70
2017-08-20T01:26:57.563Z,12.60
2017-08-20T01:29:25.062Z,12.60
2017-08-20T01:31:52.546Z,12.60
2017-08-20T01:34:20.058Z,12.60
2017-08-20T01:36:47.548Z,12.60
2017-08-20T01:39:15.050Z,12.50
2017-08-20T01:41:42.538Z,12.50
2017-08-20T01:44:11.977Z,12.60
2017-08-20T01:46:39.493Z,12.60
2017-08-20T01:49:08.922Z,12.60
2017-08-20T01:51:36.413Z,12.60
2017-08-20T01:54:05.871Z,12.60
2017-08-20T01:56:33.355Z,12.50
2017-08-20T01:59:00.866Z,12.50
2017-08-20T02:01:28.359Z,12.50
2017-08-20T02:03:55.853Z,12.50
2017-08-20T02:06:24.298Z,12.60
2017-08-20T02:08:51.802Z,12.60
2017-08-20T02:11:19.290Z,12.60
2017-08-20T02:13:48.727Z,12.60
2017-08-20T02:16:16.232Z,12.70
2017-08-20T02:18:43.747Z,12.70
2017-08-20T02:21:11.241Z,12.70
2017-08-20T02:23:40.670Z,12.70
2017-08-20T02:26:08.159Z,12.70
2017-08-20T02:28:35.675Z,12.60
2017-08-20T02:31:03.170Z,12.60
2017-08-20T02:33:30.705Z,12.60
2017-08-20T02:35:59.127Z,12.60
2017-08-20T02:38:26.638Z,12.60
2017-08-20T02:40:54.139Z,12.70
2017-08-20T02:43:21.655Z,12.70
2017-08-20T02:45:49.155Z,12.70
2017-08-20T02:48:18.652Z,12.70
2017-08-20T02:50:46.299Z,12.60
2017-08-20T02:53:13.808Z,12.50
2017-08-20T02:55:41.323Z,12.70
2017-08-20T02:58:08.806Z,12.70
2017-08-20T03:00:36.310Z,12.60
2017-08-20T03:03:03.842Z,12.80
2017-08-20T03:05:44.690Z,12.70
2017-08-20T03:08:12.170Z,12.50
2017-08-20T03:10:39.678Z,12.40
2017-08-20T03:13:07.167Z,12.30
2017-08-20T03:15:36.664Z,12.30
2017-08-20T03:18:04.146Z,12.20
2017-08-20T03:20:31.653Z,12.20
2017-08-20T03:22:59.134Z,12.20
2017-08-20T03:25:26.636Z,12.20
2017-08-20T03:27:54.137Z,12.20
2017-08-20T03:30:21.632Z,12.20
2017-08-20T03:32:51.095Z,12.10
2017-08-20T03:35:18.578Z,12.10
2017-08-20T03:37:46.085Z,12.10
2017-08-20T03:40:13.567Z,12.00
2017-08-20T03:42:42.006Z,12.00
2017-08-20T03:45:09.506Z,12.10
2017-08-20T03:47:37.006Z,12.10
2017-08-20T03:50:04.486Z,12.10
2017-08-20T03:52:31.995Z,12.10
2017-08-20T03:55:00.418Z,12.20
2017-08-20T03:57:27.927Z,12.20
2017-08-20T03:59:55.434Z,12.10
2017-08-20T04:02:22.918Z,12.10
2017-08-20T04:04:50.418Z,12.00
2017-08-20T04:07:18.851Z,11.90
2017-08-20T04:09:46.344Z,11.80
2017-08-20T04:12:13.842Z,11.70
2017-08-20T04:14:41.358Z,11.70
2017-08-20T04:17:08.850Z,11.70
2017-08-20T04:19:36.352Z,11.70
2017-08-20T04:22:04.839Z,11.70
2017-08-20T04:24:32.352Z,11.60
2017-08-20T04:26:59.832Z,11.60
2017-08-20T04:29:27.391Z,11.70
2017-08-20T04:31:54.871Z,11.70
2017-08-20T04:34:22.393Z,11.70
2017-08-20T04:36:49.900Z,11.70
2017-08-20T04:39:17.409Z,11.70
2017-08-20T04:41:44.906Z,11.70
2017-08-20T04:44:14.334Z,11.70
2017-08-20T04:46:41.826Z,11.70
2017-08-20T04:49:09.339Z,11.70
2017-08-20T04:51:36.842Z,11.70
2017-08-20T04:54:04.358Z,11.70
2017-08-20T04:56:31.851Z,11.70
2017-08-20T04:58:59.358Z,11.60
2017-08-20T05:01:26.842Z,11.60
2017-08-20T05:03:54.350Z,11.60
2017-08-20T05:06:21.834Z,11.70
2017-08-20T05:08:49.339Z,11.70
2017-08-20T05:11:16.822Z,11.80
2017-08-20T05:13:44.322Z,11.80
2017-08-20T05:16:11.798Z,11.80
2017-08-20T05:18:39.307Z,11.90
2017-08-20T05:21:06.795Z,11.90
2017-08-20T05:23:34.297Z,11.90
2017-08-20T05:26:01.802Z,11.90
2017-08-20T05:28:29.296Z,12.00
2017-08-20T05:30:56.791Z,12.00
2017-08-20T05:33:24.361Z,12.10
2017-08-20T05:35:52.375Z,12.20
2017-08-20T05:38:19.853Z,12.30
2017-08-20T05:40:47.362Z,12.40
2017-08-20T05:43:14.837Z,12.60
2017-08-20T05:45:42.342Z,12.70
2017-08-20T05:48:09.826Z,12.80
2017-08-20T05:50:37.334Z,12.90
2017-08-20T05:53:05.850Z,12.90
2017-08-20T05:55:34.281Z,13.00
2017-08-20T05:58:01.779Z,13.10
2017-08-20T06:00:29.278Z,13.20
2017-08-20T06:02:56.780Z,13.20
2017-08-20T06:05:24.262Z,13.20
2017-08-20T06:07:51.766Z,13.30
2017-08-20T06:10:19.246Z,13.40
2017-08-20T06:12:48.738Z,13.50
2017-08-20T06:15:16.226Z,13.40
2017-08-20T06:17:43.726Z,13.50
2017-08-20T06:20:11.206Z,13.60
2017-08-20T06:22:38.722Z,13.70
2017-08-20T06:25:06.234Z,13.80
2017-08-20T06:27:33.714Z,13.90
2017-08-20T06:30:01.350Z,14.00
2017-08-20T06:32:29.806Z,14.10
2017-08-20T06:34:57.304Z,14.20
2017-08-20T06:37:24.909Z,14.30
2017-08-20T06:39:54.383Z,14.30
2017-08-20T06:42:22.011Z,14.30
2017-08-20T06:44:49.529Z,14.30
2017-08-20T06:47:17.958Z,14.30
2017-08-20T06:49:45.487Z,14.30
2017-08-20T06:52:12.966Z,14.40
2017-08-20T06:54:40.494Z,14.50
2017-08-20T06:57:07.985Z,14.60
2017-08-20T06:59:35.525Z,14.70
2017-08-20T07:02:03.031Z,14.70
2017-08-20T07:04:30.535Z,14.60
2017-08-20T07:06:58.018Z,14.60
2017-08-20T07:09:25.538Z,14.60
2017-08-20T07:11:53.026Z,14.60
2017-08-20T07:14:20.534Z,14.70
2017-08-20T07:16:48.082Z,14.80
2017-08-20T07:19:15.577Z,14.90
2017-08-20T07:21:45.002Z,15.00
2017-08-20T07:24:12.499Z,15.10
2017-08-20T07:26:40.001Z,15.10
2017-08-20T07:29:07.491Z,15.20
2017-08-20T07:31:34.994Z,15.30
2017-08-20T07:34:02.483Z,15.40
2017-08-20T07:36:30.068Z,15.20
2017-08-20T07:38:57.572Z,15.30
2017-08-20T07:41:25.058Z,15.40
2017-08-20T07:43:54.480Z,15.60
2017-08-20T07:46:21.973Z,15.60
2017-08-20T07:48:49.453Z,15.60
2017-08-20T07:51:16.945Z,15.70
2017-08-20T07:53:45.661Z,15.70
2017-08-20T07:56:13.235Z,15.80
2017-08-20T07:58:41.595Z,15.90
2017-08-20T08:01:09.108Z,16.00
2017-08-20T08:03:36.598Z,16.10
2017-08-20T08:06:04.103Z,16.30
2017-08-20T08:08:31.627Z,16.40
2017-08-20T08:10:59.138Z,16.50
2017-08-20T08:13:26.646Z,16.50
2017-08-20T08:15:54.175Z,16.50
2017-08-20T08:18:23.711Z,16.50
2017-08-20T08:20:51.247Z,16.40
2017-08-20T08:23:18.736Z,16.50
2017-08-20T08:25:46.265Z,16.40
2017-08-20T08:28:13.757Z,16.50
2017-08-20T08:30:41.304Z,16.50
2017-08-20T08:33:08.920Z,16.60
2017-08-20T08:35:36.406Z,16.80
2017-08-20T08:38:03.978Z,16.80
2017-08-20T08:40:31.470Z,16.90
2017-08-20T08:42:58.981Z,17.00
2017-08-20T08:45:27.401Z,17.10
2017-08-20T08:47:54.903Z,17.10
2017-08-20T08:50:22.386Z,17.20
2017-08-20T08:52:50.891Z,17.10
2017-08-20T08:55:18.398Z,17.10
2017-08-20T08:57:45.876Z,17.00
2017-08-20T09:00:13.449Z,17.10
2017-08-20T09:02:40.937Z,17.10
2017-08-20T09:05:09.384Z,17.10
2017-08-20T09:07:36.899Z,17.10
2017-08-20T09:10:04.434Z,17.20
2017-08-20T09:12:31.920Z,17.20
2017-08-20T09:14:59.530Z,17.30
2017-08-20T09:17:27.006Z,17.20
2017-08-20T09:19:54.506Z,17.20
2017-08-20T09:22:22.078Z,17.40
2017-08-20T09:24:51.540Z,17.50
2017-08-20T09:27:19.962Z,17.60
2017-08-20T09:29:47.443Z,17.60
2017-08-20T09:32:14.950Z,17.70
2017-08-20T09:34:42.438Z,17.90
2017-08-20T09:37:09.950Z,18.00
2017-08-20T09:39:37.455Z,18.20
2017-08-20T09:42:04.968Z,18.30
2017-08-20T09:44:32.469Z,18.30
2017-08-20T09:46:59.986Z,18.20
2017-08-20T09:49:27.489Z,18.30
2017-08-20T09:51:54.996Z,18.50
2017-08-20T09:54:22.644Z,18.60
2017-08-20T09:56:50.170Z,18.60
2017-08-20T09:59:17.651Z,18.60
2017-08-20T10:01:45.277Z,18.60
2017-08-20T10:04:12.834Z,18.60
2017-08-20T10:06:40.353Z,18.60
2017-08-20T10:09:08.710Z,18.60
2017-08-20T10:11:36.270Z,18.70
2017-08-20T10:14:03.755Z,18.70
2017-08-20T10:16:31.255Z,18.80
2017-08-20T10:18:58.733Z,19.00
2017-08-20T10:21:26.239Z,19.10
2017-08-20T10:23:53.721Z,19.30
2017-08-20T10:26:22.009Z,19.50
2017-08-20T10:28:49.513Z,19.50
2017-08-20T10:31:17.036Z,19.30
2017-08-20T10:33:45.506Z,19.10
2017-08-20T10:36:13.868Z,19.20
2017-08-20T10:38:41.525Z,19.10
2017-08-20T10:41:09.030Z,19.00
2017-08-20T10:43:36.543Z,18.80
2017-08-20T10:46:04.044Z,18.80
2017-08-20T10:48:36.242Z,18.80
2017-08-20T10:51:03.734Z,18.80
2017-08-20T10:53:31.251Z,18.70
2017-08-20T10:55:58.743Z,18.70
2017-08-20T10:58:27.168Z,18.70
2017-08-20T11:00:54.674Z,18.70
2017-08-20T11:03:22.155Z,18.90
2017-08-20T11:05:49.663Z,18.80
2017-08-20T11:08:17.147Z,19.00
2017-08-20T11:10:44.663Z,19.30
2017-08-20T11:13:12.149Z,19.60
2017-08-20T11:15:39.649Z,19.70
2017-08-20T11:18:07.152Z,19.70
2017-08-20T11:20:34.639Z,19.90
2017-08-20T11:23:02.147Z,20.10
2017-08-20T11:25:30.582Z,20.10
2017-08-20T11:27:58.074Z,20.00
2017-08-20T11:30:25.558Z,20.00
2017-08-20T11:32:53.077Z,20.20
2017-08-20T11:35:20.555Z,20.30
2017-08-20T11:37:48.057Z,20.30
2017-08-20T11:40:15.554Z,20.30
2017-08-20T11:42:43.065Z,20.30
2017-08-20T11:45:11.491Z,20.30
2017-08-20T11:47:38.962Z,20.20
2017-08-20T11:50:06.457Z,20.20
2017-08-20T11:52:33.946Z,20.20
2017-08-20T11:55:01.446Z,20.20
2017-08-20T11:57:28.946Z,20.30
2017-08-20T11:59:56.432Z,20.50
2017-08-20T12:02:23.939Z,20.60
2017-08-20T12:04:51.421Z,20.80
2017-08-20T12:07:18.922Z,20.90
2017-08-20T12:09:46.433Z,20.70
2017-08-20T12:12:14.831Z,20.60
2017-08-20T12:14:42.350Z,20.50
2017-08-20T12:17:09.855Z,20.50
2017-08-20T12:19:38.284Z,20.50
2017-08-20T12:22:06.718Z,20.50
2017-08-20T12:24:34.202Z,20.40
2017-08-20T12:27:01.688Z,20.30
2017-08-20T12:29:29.182Z,20.20
2017-08-20T12:31:56.682Z,20.00
2017-08-20T12:34:24.157Z,20.00
2017-08-20T12:36:53.602Z,19.90
2017-08-20T12:39:21.117Z,19.90
2017-08-20T12:41:48.606Z,20.00
2017-08-20T12:44:16.106Z,20.10
2017-08-20T12:46:43.587Z,20.10
2017-08-20T12:49:11.082Z,20.10
2017-08-20T12:51:38.573Z,20.20
2017-08-20T12:54:06.083Z,20.40
2017-08-20T12:56:33.586Z,20.50
2017-08-20T12:59:01.094Z,20.60
2017-08-20T13:01:28.570Z,20.70
2017-08-20T13:03:56.066Z,20.60
2017-08-20T13:06:23.562Z,20.50
2017-08-20T13:08:51.064Z,20.60
2017-08-20T13:11:18.566Z,20.70
2017-08-20T13:13:46.057Z,20.70
2017-08-20T13:16:13.545Z,20.90
2017-08-20T13:18:42.034Z,21.00
2017-08-20T13:21:09.570Z,21.30
2017-08-20T13:23:39.006Z,21.50
2017-08-20T13:26:06.503Z,21.50
2017-08-20T13:28:34.014Z,21.50
2017-08-20T13:31:01.501Z,21.70
2017-08-20T13:33:28.990Z,21.50
2017-08-20T13:35:56.468Z,21.30
2017-08-20T13:38:25.930Z,21.40
2017-08-20T13:40:53.409Z,21.40
2017-08-20T13:43:20.936Z,21.10
2017-08-20T13:45:49.346Z,20.80
2017-08-20T13:48:16.842Z,20.70
2017-08-20T13:50:44.322Z,20.70
2017-08-20T13:53:11.842Z,21.00
2017-08-20T13:55:39.330Z,21.30
2017-08-20T13:58:06.831Z,21.40
2017-08-20T14:00:34.310Z,21.20
2017-08-20T14:03:01.808Z,21.30
2017-08-20T14:05:29.294Z,21.50
2017-08-20T14:07:56.785Z,21.40
2017-08-20T14:10:24.287Z,21.30
2017-08-20T14:12:51.926Z,21.20
2017-08-20T14:15:19.516Z,21.30
2017-08-20T14:17:47.018Z,21.40
2017-08-20T14:20:14.573Z,21.40
2017-08-20T14:22:42.063Z,21.40
2017-08-20T14:25:09.584Z,21.10
2017-08-20T14:27:37.058Z,21.10
2017-08-20T14:30:04.647Z,21.00
2017-08-20T14:32:32.139Z,21.00
2017-08-20T14:35:00.606Z,21.20
2017-08-20T14:37:31.074Z,21.40
2017-08-20T14:39:58.713Z,21.30
2017-08-20T14:42:26.231Z,21.20
2017-08-20T14:44:53.731Z,21.00
2017-08-20T14:47:21.249Z,20.70
2017-08-20T14:49:48.731Z,20.50
2017-08-20T14:52:19.423Z,20.40
2017-08-20T14:54:48.013Z,20.40
2017-08-20T14:57:15.640Z,20.30
2017-08-20T14:59:43.216Z,20.20
2017-08-20T15:02:10.807Z,20.20
2017-08-20T15:04:38.393Z,20.40
2017-08-20T15:07:06.002Z,20.30
2017-08-20T15:09:33.785Z,20.30
2017-08-20T15:12:01.325Z,20.40
2017-08-20T15:14:28.886Z,20.40
2017-08-20T15:16:56.474Z,20.50
2017-08-20T15:19:24.026Z,20.50
2017-08-20T15:21:51.577Z,20.40
2017-08-20T15:24:19.141Z,20.30
2017-08-20T15:26:46.743Z,20.30
2017-08-20T15:29:14.282Z,20.30
2017-08-20T15:31:41.854Z,20.40
2017-08-20T15:34:09.365Z,20.30
2017-08-20T15:36:36.934Z,20.10
2017-08-20T15:39:04.565Z,20.00
2017-08-20T15:41:32.088Z,19.90
2017-08-20T15:44:01.587Z,19.90
2017-08-20T15:46:29.125Z,19.80
2017-08-20T15:48:56.622Z,19.70
2017-08-20T15:51:25.052Z,19.80
2017-08-20T15:53:52.552Z,20.00
2017-08-20T15:56:20.041Z,20.00
2017-08-20T15:58:47.540Z,19.90
2017-08-20T16:01:15.026Z,19.80
2017-08-20T16:03:42.619Z,19.80
2017-08-20T16:06:10.122Z,19.70
2017-08-20T16:08:37.651Z,19.70
2017-08-20T16:11:05.192Z,19.70
2017-08-20T16:13:32.674Z,19.70
2017-08-20T16:16:00.184Z,19.60
2017-08-20T16:18:27.678Z,19.70
2017-08-20T16:20:55.227Z,19.70
2017-08-20T16:23:22.808Z,19.70
2017-08-20T16:25:50.384Z,19.80
2017-08-20T16:28:17.868Z,19.90
2017-08-20T16:30:45.413Z,19.90
2017-08-20T16:33:12.962Z,19.90
2017-08-20T16:35:40.458Z,19.80
2017-08-20T16:38:07.960Z,19.80
2017-08-20T16:40:35.487Z,19.90
2017-08-20T16:43:03.102Z,19.80
2017-08-20T16:45:30.779Z,19.70
2017-08-20T16:47:58.423Z,19.70
2017-08-20T16:50:25.990Z,19.70
2017-08-20T16:52:53.530Z,19.70
2017-08-20T16:55:21.109Z,19.60
2017-08-20T16:57:48.623Z,19.60
2017-08-20T17:00:16.200Z,19.60
2017-08-20T17:02:43.758Z,19.70
2017-08-20T17:05:11.319Z,19.80
2017-08-20T17:07:40.185Z,19.70
2017-08-20T17:10:07.731Z,19.70
2017-08-20T17:12:35.282Z,19.70
2017-08-20T17:15:03.815Z,19.80
2017-08-20T17:17:31.362Z,19.70
2017-08-20T17:19:58.904Z,19.70
2017-08-20T17:22:26.436Z,19.80
2017-08-20T17:24:53.995Z,19.60
2017-08-20T17:27:21.542Z,19.50
2017-08-20T17:29:49.060Z,19.30
2017-08-20T17:32:16.612Z,19.30
2017-08-20T17:34:46.274Z,19.30
2017-08-20T17:37:13.896Z,19.20
2017-08-20T17:39:41.472Z,19.30
2017-08-20T17:42:10.937Z,19.20
2017-08-20T17:44:39.465Z,19.10
2017-08-20T17:47:07.052Z,19.10
2017-08-20T17:49:35.465Z,18.90
2017-08-20T17:52:02.982Z,18.80
2017-08-20T17:54:30.467Z,18.80
2017-08-20T17:56:57.976Z,18.80
2017-08-20T17:59:25.450Z,18.70
2017-08-20T18:01:54.897Z,18.70
2017-08-20T18:04:22.375Z,18.70
2017-08-20T18:06:51.835Z,18.60
2017-08-20T18:09:19.310Z,18.50
2017-08-20T18:11:46.812Z,18.40
2017-08-20T18:14:14.286Z,18.40
2017-08-20T18:16:41.778Z,18.30
2017-08-20T18:19:09.258Z,18.20
2017-08-20T18:21:36.762Z,18.20
2017-08-20T18:24:05.235Z,18.00
2017-08-20T18:26:32.730Z,18.00
2017-08-20T18:29:00.211Z,17.90
2017-08-20T18:31:27.722Z,17.90
2017-08-20T18:33:55.226Z,17.80
2017-08-20T18:36:22.730Z,17.80
2017-08-20T18:38:51.160Z,17.70
2017-08-20T18:41:18.678Z,17.70
2017-08-20T18:43:46.159Z,17.50
2017-08-20T18:46:14.610Z,17.50
2017-08-20T18:48:42.106Z,17.30
2017-08-20T18:51:09.609Z,17.30
2017-08-20T18:53:37.110Z,17.20
2017-08-20T18:56:04.594Z,17.10
2017-08-20T18:58:32.089Z,17.10
2017-08-20T19:00:59.610Z,17.00
2017-08-20T19:03:27.154Z,16.90
2017-08-20T19:05:54.695Z,16.90
2017-08-20T19:08:22.194Z,16.80
2017-08-20T19:10:49.698Z,16.70
2017-08-20T19:13:17.178Z,16.60
2017-08-20T19:15:46.624Z,16.50
2017-08-20T19:18:14.139Z,16.40
2017-08-20T19:20:41.642Z,16.40
2017-08-20T19:23:09.142Z,16.30
2017-08-20T19:25:38.009Z,16.30
2017-08-20T19:28:05.551Z,16.20
2017-08-20T19:30:33.077Z,16.10
2017-08-20T19:33:00.659Z,15.90
2017-08-20T19:35:28.285Z,15.80
2017-08-20T19:37:55.860Z,15.70
2017-08-20T19:40:23.507Z,15.60
2017-08-20T19:42:51.046Z,15.50
2017-08-20T19:45:19.479Z,15.40
2017-08-20T19:47:47.028Z,15.30
2017-08-20T19:50:14.561Z,15.20
2017-08-20T19:52:42.119Z,15.10
2017-08-20T19:55:09.633Z,14.90
2017-08-20T19:57:37.135Z,14.90
2017-08-20T20:00:04.634Z,14.90
2017-08-20T20:02:32.114Z,14.90
2017-08-20T20:04:59.614Z,14.80
2017-08-20T20:07:28.034Z,14.70
2017-08-20T20:09:55.552Z,14.60
2017-08-20T20:12:23.099Z,14.40
2017-08-20T20:14:50.582Z,14.40
2017-08-20T20:17:18.108Z,14.20
2017-08-20T20:19:45.578Z,14.30
2017-08-20T20:22:15.012Z,14.30
2017-08-20T20:24:42.495Z,14.30
2017-08-20T20:27:09.986Z,14.20
2017-08-20T20:29:38.430Z,14.10
2017-08-20T20:32:05.915Z,13.90
2017-08-20T20:34:33.418Z,13.90
2017-08-20T20:37:00.898Z,13.80
2017-08-20T20:39:28.387Z,13.70
2017-08-20T20:41:55.894Z,13.60
2017-08-20T20:44:23.790Z,13.70
2017-08-20T20:46:51.369Z,13.60
2017-08-20T20:49:20.802Z,13.60
2017-08-20T20:51:48.294Z,13.60
2017-08-20T20:54:15.826Z,13.60
2017-08-20T20:56:44.255Z,13.50
2017-08-20T20:59:11.773Z,13.50
2017-08-20T21:01:39.279Z,13.40
2017-08-20T21:04:06.809Z,13.30
2017-08-20T21:06:34.286Z,13.30
2017-08-20T21:09:03.770Z,13.30
2017-08-20T21:11:31.253Z,13.20
2017-08-20T21:13:58.779Z,13.10
2017-08-20T21:16:26.326Z,12.90
2017-08-20T21:18:53.880Z,13.00
2017-08-20T21:21:21.447Z,12.90
2017-08-20T21:23:48.955Z,13.00
2017-08-20T21:26:16.505Z,13.00
2017-08-20T21:28:44.031Z,13.00
2017-08-20T21:31:11.636Z,13.10
2017-08-20T21:33:39.284Z,12.90
2017-08-20T21:36:06.878Z,12.90
2017-08-20T21:38:34.423Z,12.80
2017-08-20T21:41:01.966Z,12.80
2017-08-20T21:43:29.463Z,12.80
2017-08-20T21:45:58.935Z,12.70
2017-08-20T21:48:26.422Z,12.60
2017-08-20T21:50:53.922Z,12.50
2017-08-20T21:53:21.402Z,12.50
2017-08-20T21:55:49.802Z,12.60
2017-08-20T21:58:17.284Z,12.80
2017-08-20T22:00:46.725Z,12.80
2017-08-20T22:03:14.209Z,12.80
2017-08-20T22:05:41.710Z,12.80
2017-08-20T22:08:09.222Z,12.80
2017-08-20T22:10:37.683Z,12.70
2017-08-20T22:13:05.191Z,12.70
2017-08-20T22:15:32.671Z,12.60
2017-08-20T22:18:00.176Z,12.60
2017-08-20T22:20:27.658Z,12.60
2017-08-20T22:22:55.206Z,12.60
2017-08-20T22:25:23.645Z,12.60
2017-08-20T22:27:51.162Z,12.50
2017-08-20T22:30:18.655Z,12.40
2017-08-20T22:32:46.162Z,12.30
2017-08-20T22:35:13.646Z,12.30
2017-08-20T22:37:41.171Z,12.20
2017-08-20T22:40:08.682Z,12.20
2017-08-20T22:42:36.174Z,12.30
2017-08-20T22:45:05.642Z,12.40
2017-08-20T22:47:33.158Z,12.40
2017-08-20T22:50:00.695Z,12.40
2017-08-20T22:52:28.176Z,12.40
2017-08-20T22:54:55.687Z,12.30
2017-08-20T22:57:23.186Z,12.30
2017-08-20T22:59:50.683Z,12.20
2017-08-20T23:02:18.173Z,12.20
2017-08-20T23:04:47.594Z,12.20
2017-08-20T23:07:15.082Z,12.20
2017-08-20T23:09:42.587Z,12.20
2017-08-20T23:12:10.103Z,12.30
2017-08-20T23:14:37.634Z,12.20
2017-08-20T23:17:05.120Z,12.10
2017-08-20T23:19:32.650Z,12.10
2017-08-20T23:22:00.166Z,12.10
2017-08-20T23:24:27.690Z,12.10
2017-08-20T23:26:56.188Z,12.10
2017-08-20T23:29:23.686Z,12.20
2017-08-20T23:31:51.187Z,12.20
2017-08-20T23:34:18.687Z,12.10
2017-08-20T23:36:48.109Z,12.10
2017-08-20T23:39:15.605Z,12.10
2017-08-20T23:41:43.117Z,12.10
2017-08-20T23:44:10.640Z,12.20
2017-08-20T23:46:38.138Z,12.20
2017-08-20T23:49:06.566Z,12.20
2017-08-20T23:51:34.093Z,12.10
2017-08-20T23:54:01.614Z,12.40
2017-08-20T23:56:29.116Z,12.30
2017-08-20T23:58:56.635Z,12.30
